createdAt,value
2022-09-20T04:03:41.301Z,65.67
2022-09-20T04:06:36.339Z,65.49
2022-09-20T04:09:14.685Z,65.72
2022-09-20T04:11:47.107Z,65.59
2022-09-20T04:14:22.602Z,65.49
2022-09-20T04:17:16.043Z,65.60
2022-09-20T04:20:08.080Z,65.77
2022-09-20T04:22:37.231Z,65.74
2022-09-20T04:25:22.246Z,65.74
2022-09-20T04:27:51.115Z,65.75
2022-09-20T04:30:27.578Z,65.63
2022-09-20T04:33:03.286Z,65.78
2022-09-20T04:36:25.541Z,65.66
2022-09-20T04:39:28.862Z,65.88
2022-09-20T04:42:18.326Z,65.94
2022-09-20T04:45:08.472Z,65.97
2022-09-20T04:48:01.640Z,65.93
2022-09-20T04:51:02.259Z,65.98
2022-09-20T04:54:09.906Z,65.67
2022-09-20T04:57:10.805Z,65.67
2022-09-20T05:00:15.230Z,65.87
2022-09-20T05:03:03.436Z,66.02
2022-09-20T05:05:51.338Z,65.85
2022-09-20T05:09:00.136Z,66.13
2022-09-20T05:12:02.029Z,65.94
2022-09-20T05:14:52.746Z,65.88
2022-09-20T05:17:45.359Z,66.13
2022-09-20T05:20:34.959Z,66.12
2022-09-20T05:23:56.422Z,66.21
2022-09-20T05:26:37.325Z,65.77
2022-09-20T05:29:30.460Z,65.87
2022-09-20T05:32:12.435Z,65.90
2022-09-20T05:35:03.249Z,66.00
2022-09-20T05:38:12.816Z,66.06
2022-09-20T05:41:00.663Z,66.08
2022-09-20T05:43:35.451Z,65.98
2022-09-20T05:46:19.615Z,65.90
2022-09-20T05:49:26.382Z,66.00
2022-09-20T05:52:17.255Z,66.07
2022-09-20T05:54:48.436Z,65.94
2022-09-20T05:57:29.624Z,65.98
2022-09-20T06:00:18.178Z,65.93
2022-09-20T06:03:09.331Z,65.57
2022-09-20T06:06:13.882Z,65.65
2022-09-20T06:09:02.074Z,65.60
2022-09-20T06:11:50.051Z,65.58
2022-09-20T06:14:51.569Z,65.27
2022-09-20T06:17:33.863Z,65.53
2022-09-20T06:20:16.525Z,65.35
2022-09-20T06:22:59.754Z,65.22
2022-09-20T06:25:58.161Z,65.28
2022-09-20T06:28:49.753Z,65.13
2022-09-20T06:31:18.517Z,65.36
2022-09-20T06:34:15.537Z,65.44
2022-09-20T06:37:33.277Z,65.32
2022-09-20T06:40:40.621Z,65.23
2022-09-20T06:43:10.584Z,65.19
2022-09-20T06:45:39.148Z,65.21
2022-09-20T06:48:12.886Z,65.28
2022-09-20T06:50:46.228Z,65.28
2022-09-20T06:53:24.842Z,65.26
2022-09-20T06:55:54.330Z,65.39
2022-09-20T06:58:23.800Z,65.45
2022-09-20T07:00:53.899Z,65.47
2022-09-20T07:03:23.402Z,65.17
2022-09-20T07:05:52.626Z,65.01
2022-09-20T07:08:22.066Z,65.02
2022-09-20T07:10:51.254Z,64.93
2022-09-20T07:13:21.258Z,65.13
2022-09-20T07:15:51.369Z,64.97
2022-09-20T07:18:20.762Z,64.87
2022-09-20T07:20:49.842Z,64.90
2022-09-20T07:23:18.854Z,64.86
2022-09-20T07:25:48.310Z,64.93
2022-09-20T07:28:17.541Z,64.95
2022-09-20T07:30:47.864Z,64.94
2022-09-20T07:33:22.488Z,65.02
2022-09-20T07:35:56.113Z,64.80
2022-09-20T07:38:25.988Z,64.80
2022-09-20T07:41:01.366Z,64.68
2022-09-20T07:43:31.821Z,64.67
2022-09-20T07:46:00.687Z,64.74
2022-09-20T07:48:32.617Z,64.81
2022-09-20T07:51:09.070Z,64.82
2022-09-20T07:53:39.644Z,64.95
2022-09-20T07:56:16.825Z,64.73
2022-09-20T07:58:50.029Z,64.96
2022-09-20T08:01:23.299Z,64.75
2022-09-20T08:03:52.760Z,64.70
2022-09-20T08:06:22.371Z,64.94
2022-09-20T08:08:52.290Z,64.82
2022-09-20T08:11:29.589Z,64.67
2022-09-20T08:14:05.444Z,64.80
2022-09-20T08:16:42.401Z,64.68
2022-09-20T08:19:20.167Z,64.58
2022-09-20T08:21:51.488Z,64.49
2022-09-20T08:24:21.394Z,64.80
2022-09-20T08:26:50.766Z,64.57
2022-09-20T08:29:19.343Z,64.67
2022-09-20T08:31:48.469Z,64.76
2022-09-20T08:34:18.977Z,64.82
2022-09-20T08:36:50.976Z,64.73
2022-09-20T08:42:37.886Z,64.57
2022-09-20T08:45:34.578Z,64.34
2022-09-20T08:48:10.727Z,64.13
2022-09-20T08:50:40.259Z,64.37
2022-09-20T08:53:20.987Z,64.44
2022-09-20T08:55:51.457Z,64.16
2022-09-20T08:58:20.838Z,64.34
2022-09-20T09:00:50.295Z,64.47
2022-09-20T09:03:20.004Z,64.40
2022-09-20T09:05:53.414Z,64.47
2022-09-20T09:08:38.664Z,64.43
2022-09-20T09:11:17.094Z,64.00
2022-09-20T09:14:27.918Z,64.12
2022-09-20T09:16:57.672Z,63.91
2022-09-20T09:19:48.636Z,63.95
2022-09-20T09:22:38.112Z,64.18
2022-09-20T09:25:20.445Z,63.83
2022-09-20T09:27:56.012Z,63.51
2022-09-20T09:30:34.962Z,63.36
2022-09-20T09:33:24.218Z,63.31
2022-09-20T09:36:18.263Z,63.19
2022-09-20T09:38:48.477Z,63.13
2022-09-20T09:41:37.820Z,63.21
2022-09-20T09:44:20.284Z,62.85
2022-09-20T09:46:54.572Z,62.61
2022-09-20T09:49:26.724Z,62.47
2022-09-20T09:52:15.273Z,62.60
2022-09-20T09:54:51.172Z,62.43
2022-09-20T09:57:58.639Z,62.66
2022-09-20T10:00:30.052Z,62.63
2022-09-20T10:03:21.583Z,62.33
2022-09-20T10:06:13.176Z,62.55
2022-09-20T10:09:08.932Z,62.51
2022-09-20T10:12:11.531Z,62.73
2022-09-20T10:15:09.683Z,62.23
2022-09-20T10:18:13.752Z,61.79
2022-09-20T10:20:42.521Z,61.64
2022-09-20T10:24:01.917Z,61.79
2022-09-20T10:26:54.845Z,61.33
2022-09-20T10:29:58.156Z,61.48
2022-09-20T10:32:52.389Z,61.18
2022-09-20T10:35:53.145Z,61.36
2022-09-20T10:38:35.223Z,61.11
2022-09-20T10:41:38.755Z,60.93
2022-09-20T10:44:20.061Z,60.91
2022-09-20T10:47:08.841Z,60.89
2022-09-20T10:50:01.071Z,60.88
2022-09-20T10:53:09.797Z,60.96
2022-09-20T10:55:54.339Z,60.84
2022-09-20T10:58:25.133Z,60.68
2022-09-20T11:01:12.717Z,60.45
2022-09-20T11:04:12.668Z,60.36
2022-09-20T11:07:03.498Z,60.17
2022-09-20T11:09:57.814Z,60.03
2022-09-20T11:12:43.521Z,60.02
2022-09-20T11:15:31.183Z,60.09
2022-09-20T11:18:24.054Z,59.90
2022-09-20T11:20:56.438Z,59.67
2022-09-20T11:23:48.885Z,59.74
2022-09-20T11:26:32.402Z,59.69
2022-09-20T11:29:25.232Z,59.96
2022-09-20T11:32:02.318Z,59.76
2022-09-20T11:34:38.054Z,59.43
2022-09-20T11:37:07.346Z,59.59
2022-09-20T11:39:40.956Z,59.61
2022-09-20T11:42:17.117Z,59.45
2022-09-20T11:44:47.050Z,59.57
2022-09-20T11:47:54.071Z,59.40
2022-09-20T11:51:00.234Z,59.06
2022-09-20T11:53:51.308Z,58.94
2022-09-20T11:56:22.016Z,58.83
2022-09-20T11:58:54.258Z,58.75
2022-09-20T12:01:34.071Z,58.80
2022-09-20T12:04:31.806Z,58.94
2022-09-20T12:07:33.342Z,58.89
2022-09-20T12:10:25.091Z,58.46
2022-09-20T12:13:16.840Z,58.34
2022-09-20T12:15:47.145Z,58.32
2022-09-20T12:18:36.260Z,58.39
2022-09-20T12:21:15.007Z,57.86
2022-09-20T12:24:01.536Z,57.76
2022-09-20T12:26:39.424Z,57.82
2022-09-20T12:29:31.986Z,58.02
2022-09-20T12:32:03.688Z,58.10
2022-09-20T12:34:37.935Z,58.00
2022-09-20T12:37:19.780Z,58.09
2022-09-20T12:39:56.804Z,57.94
2022-09-20T12:42:34.767Z,57.83
2022-09-20T12:45:15.995Z,57.68
2022-09-20T12:47:55.892Z,57.49
2022-09-20T12:50:43.944Z,57.32
2022-09-20T12:53:16.719Z,56.88
2022-09-20T12:56:06.530Z,56.83
2022-09-20T12:58:52.812Z,56.51
2022-09-20T13:01:22.935Z,57.02
2022-09-20T13:03:51.749Z,57.31
2022-09-20T13:06:23.883Z,57.17
2022-09-20T13:09:02.254Z,57.45
2022-09-20T13:11:49.476Z,57.43
2022-09-20T13:14:29.468Z,57.39
2022-09-20T13:17:15.064Z,57.24
2022-09-20T13:19:50.615Z,57.36
2022-09-20T13:22:28.900Z,57.27
2022-09-20T13:25:03.836Z,57.50
2022-09-20T13:27:35.014Z,57.44
2022-09-20T13:30:23.444Z,57.44
2022-09-20T13:32:53.139Z,57.27
2022-09-20T13:35:24.804Z,57.22
2022-09-20T13:38:08.007Z,57.45
2022-09-20T13:40:37.492Z,57.34
2022-09-20T13:43:28.994Z,57.42
2022-09-20T13:46:00.297Z,57.81
2022-09-20T13:48:30.847Z,57.65
2022-09-20T13:50:59.579Z,57.63
2022-09-20T13:53:41.777Z,57.43
2022-09-20T13:56:25.535Z,57.38
2022-09-20T13:58:56.306Z,57.56
2022-09-20T14:01:30.522Z,57.57
2022-09-20T14:04:10.096Z,57.57
2022-09-20T14:06:39.103Z,57.51
2022-09-20T14:09:11.324Z,57.12
2022-09-20T14:11:41.725Z,57.30
2022-09-20T14:14:19.903Z,57.47
2022-09-20T14:16:55.039Z,57.33
2022-09-20T14:19:31.971Z,57.14
2022-09-20T14:22:05.646Z,57.09
2022-09-20T14:24:37.499Z,57.41
2022-09-20T14:27:16.784Z,57.52
2022-09-20T14:29:49.342Z,57.49
2022-09-20T14:32:17.809Z,57.36
2022-09-20T14:34:46.471Z,57.21
2022-09-20T14:37:37.328Z,57.26
2022-09-20T14:40:20.376Z,57.51
2022-09-20T14:42:54.740Z,57.41
2022-09-20T14:45:34.764Z,57.11
2022-09-20T14:48:11.146Z,57.10
2022-09-20T14:50:44.065Z,57.16
2022-09-20T14:53:15.254Z,56.95
2022-09-20T14:56:07.298Z,57.07
2022-09-20T14:59:06.240Z,57.09
2022-09-20T15:01:38.323Z,56.80
2022-09-20T15:04:11.420Z,56.93
2022-09-20T15:06:41.218Z,56.82
2022-09-20T15:09:13.788Z,56.83
2022-09-20T15:11:42.719Z,56.92
2022-09-20T15:14:11.486Z,56.91
2022-09-20T15:16:40.164Z,57.03
2022-09-20T15:19:10.037Z,56.79
2022-09-20T15:21:39.420Z,56.92
2022-09-20T15:24:08.424Z,56.81
2022-09-20T15:26:38.019Z,56.65
2022-09-20T15:29:08.639Z,56.71
2022-09-20T15:31:37.865Z,56.57
2022-09-20T15:34:07.700Z,56.53
2022-09-20T15:36:36.957Z,56.52
2022-09-20T15:39:06.577Z,56.84
2022-09-20T15:41:36.605Z,56.72
2022-09-20T15:44:07.528Z,56.68
2022-09-20T15:46:37.140Z,56.64
2022-09-20T15:49:07.786Z,56.73
2022-09-20T15:51:39.579Z,56.68
2022-09-20T15:54:11.991Z,56.67
2022-09-20T15:56:41.790Z,56.79
2022-09-20T15:59:15.304Z,56.86
2022-09-20T16:01:49.115Z,56.70
2022-09-20T16:04:19.956Z,56.77
2022-09-20T16:06:53.085Z,56.71
2022-09-20T16:09:22.410Z,57.00
2022-09-20T16:11:52.160Z,56.66
2022-09-20T16:14:21.405Z,56.67
2022-09-20T16:16:51.157Z,56.80
2022-09-20T16:19:24.661Z,56.88
2022-09-20T16:21:58.513Z,56.91
2022-09-20T16:24:35.191Z,56.93
2022-09-20T16:27:07.807Z,56.84
2022-09-20T16:29:37.012Z,57.02
2022-09-20T16:32:06.826Z,56.95
2022-09-20T16:34:37.797Z,57.06
2022-09-20T16:37:18.555Z,57.09
2022-09-20T16:39:48.130Z,57.16
2022-09-20T16:42:17.418Z,57.07
2022-09-20T16:44:48.136Z,57.34
2022-09-20T16:47:25.031Z,57.36
2022-09-20T16:49:55.093Z,57.36
2022-09-20T16:52:27.538Z,57.38
2022-09-20T16:54:57.289Z,57.40
2022-09-20T16:57:26.771Z,57.36
2022-09-20T16:59:56.660Z,57.54
2022-09-20T17:02:25.885Z,57.71
2022-09-20T17:04:55.936Z,57.58
2022-09-20T17:07:25.402Z,57.64
2022-09-20T17:10:01.975Z,57.70
2022-09-20T17:12:34.875Z,57.70
2022-09-20T17:15:03.538Z,57.77
2022-09-20T17:17:32.903Z,57.87
2022-09-20T17:20:04.997Z,57.79
2022-09-20T17:22:34.515Z,57.86
2022-09-20T17:25:04.018Z,58.03
2022-09-20T17:27:32.752Z,58.22
2022-09-20T17:30:02.931Z,58.30
2022-09-20T17:32:31.515Z,58.34
2022-09-20T17:35:01.174Z,58.45
2022-09-20T17:37:29.632Z,58.64
2022-09-20T17:40:02.312Z,58.63
2022-09-20T17:42:32.035Z,58.70
2022-09-20T17:45:01.563Z,58.76
2022-09-20T17:47:30.923Z,58.89
2022-09-20T17:50:00.493Z,58.90
2022-09-20T17:52:29.478Z,59.05
2022-09-20T17:54:58.635Z,59.10
2022-09-20T17:57:28.182Z,59.16
2022-09-20T17:59:57.842Z,59.17
2022-09-20T18:02:26.892Z,59.14
2022-09-20T18:04:55.743Z,59.30
2022-09-20T18:07:25.017Z,59.38
2022-09-20T18:09:54.233Z,59.41
2022-09-20T18:12:23.299Z,59.51
2022-09-20T18:14:52.038Z,59.50
2022-09-20T18:17:21.194Z,59.60
2022-09-20T18:19:50.370Z,59.65
2022-09-20T18:22:19.824Z,59.62
2022-09-20T18:24:48.477Z,59.74
2022-09-20T18:27:17.172Z,59.74
2022-09-20T18:29:45.916Z,59.76
2022-09-20T18:32:16.786Z,59.87
2022-09-20T18:34:51.606Z,59.97
2022-09-20T18:37:21.529Z,59.96
2022-09-20T18:39:50.779Z,59.93
2022-09-20T18:42:19.818Z,60.10
2022-09-20T18:44:50.096Z,60.03
2022-09-20T18:47:19.557Z,59.95
2022-09-20T18:49:48.614Z,60.09
2022-09-20T18:52:18.304Z,59.94
2022-09-20T18:54:47.317Z,60.15
2022-09-20T18:57:16.517Z,60.47
2022-09-20T18:59:54.050Z,60.58
2022-09-20T19:02:43.054Z,60.52
2022-09-20T19:05:24.934Z,60.48
2022-09-20T19:08:45.289Z,60.52
2022-09-20T19:11:27.627Z,60.69
2022-09-20T19:14:48.190Z,60.77
2022-09-20T19:17:28.819Z,60.75
2022-09-20T19:20:08.992Z,60.60
2022-09-20T19:23:07.989Z,60.67
2022-09-20T19:25:47.402Z,60.71
2022-09-20T19:28:17.564Z,60.63
2022-09-20T19:30:48.839Z,60.73
2022-09-20T19:33:19.948Z,60.69
2022-09-20T19:35:52.965Z,60.82
2022-09-20T19:38:38.155Z,60.61
2022-09-20T19:41:28.251Z,60.64
2022-09-20T19:44:15.738Z,60.99
2022-09-20T19:47:16.006Z,60.87
2022-09-20T19:49:54.053Z,61.16
2022-09-20T19:52:25.214Z,61.48
2022-09-20T19:54:55.276Z,61.10
2022-09-20T19:57:35.691Z,61.07
2022-09-20T20:00:09.370Z,61.36
2022-09-20T20:02:39.133Z,61.33
2022-09-20T20:05:11.306Z,61.45
2022-09-20T20:07:57.154Z,61.39
2022-09-20T20:11:21.266Z,61.40
2022-09-20T20:14:20.165Z,61.51
2022-09-20T20:17:06.069Z,61.55
2022-09-20T20:19:53.641Z,61.66
2022-09-20T20:22:30.152Z,61.63
2022-09-20T20:24:59.298Z,61.69
2022-09-20T20:27:31.504Z,61.95
2022-09-20T20:30:06.077Z,61.91
2022-09-20T20:32:35.593Z,61.78
2022-09-20T20:35:05.754Z,62.08
2022-09-20T20:37:35.657Z,61.70
2022-09-20T20:40:05.870Z,62.06
2022-09-20T20:42:36.407Z,62.01
2022-09-20T20:45:06.319Z,61.86
2022-09-20T20:47:35.323Z,62.09
2022-09-20T20:50:05.512Z,62.07
2022-09-20T20:52:33.988Z,62.06
2022-09-20T20:55:03.231Z,62.17
2022-09-20T20:57:32.714Z,62.00
2022-09-20T21:00:02.392Z,62.13
2022-09-20T21:02:31.648Z,62.15
2022-09-20T21:05:01.619Z,62.17
2022-09-20T21:07:30.206Z,62.32
2022-09-20T21:09:59.746Z,62.44
2022-09-20T21:12:28.759Z,62.42
2022-09-20T21:14:57.416Z,62.40
2022-09-20T21:17:27.126Z,62.46
2022-09-20T21:19:56.077Z,62.48
2022-09-20T21:22:24.701Z,62.58
2022-09-20T21:24:55.450Z,62.68
2022-09-20T21:27:24.164Z,62.54
2022-09-20T21:29:52.796Z,62.64
2022-09-20T21:32:21.719Z,62.69
2022-09-20T21:34:50.603Z,62.70
2022-09-20T21:37:19.808Z,63.07
2022-09-20T21:39:48.965Z,63.03
2022-09-20T21:42:18.352Z,62.95
2022-09-20T21:44:47.290Z,62.91
2022-09-20T21:47:21.057Z,63.03
2022-09-20T21:49:50.207Z,63.00
2022-09-20T21:52:19.642Z,63.20
2022-09-20T21:54:49.760Z,62.96
2022-09-20T21:57:19.094Z,62.98
2022-09-20T21:59:48.267Z,63.32
2022-09-20T22:02:17.181Z,63.47
2022-09-20T22:04:45.517Z,63.49
2022-09-20T22:07:14.640Z,63.48
2022-09-20T22:09:43.711Z,63.35
2022-09-20T22:12:12.135Z,63.85
2022-09-20T22:14:41.195Z,63.62
2022-09-20T22:17:10.948Z,63.69
2022-09-20T22:19:40.410Z,63.63
2022-09-20T22:22:09.637Z,63.83
2022-09-20T22:24:38.887Z,63.99
2022-09-20T22:27:08.126Z,63.61
2022-09-20T22:29:37.430Z,63.83
2022-09-20T22:32:06.608Z,63.75
2022-09-20T22:34:35.874Z,64.04
2022-09-20T22:37:04.945Z,63.87
2022-09-20T22:39:34.544Z,64.22
2022-09-20T22:42:03.278Z,63.90
2022-09-20T22:44:32.561Z,63.94
2022-09-20T22:47:01.807Z,64.20
2022-09-20T22:49:30.815Z,64.38
2022-09-20T22:51:59.968Z,64.01
2022-09-20T22:54:29.266Z,64.11
2022-09-20T22:56:58.573Z,64.12
2022-09-20T22:59:27.739Z,64.17
